Time;durP1;ratioP1;P1;durP2;ratioP2;P2;SDS_P1;SDS_P2;PMS_P1;PMS_P2;Temp;Humidity;BMP_temperature;BMP_pressure;BME280_temperature;BME280_humidity;BME280_pressure;Samples;Min_cycle;Max_cycle;Signal;HPM_P1;HPM_P2
2024/04/16 00:01:42;;;;;;;11.00;7.57;;;24.40;54.80;;;;;;5452993;26;20231;-72
2024/04/16 00:04:08;;;;;;;12.07;7.50;;;24.40;54.80;;;;;;5453109;26;20979;-72
2024/04/16 00:06:33;;;;;;;11.97;6.53;;;24.40;54.80;;;;;;5452900;26;20219;-72
2024/04/16 00:08:59;;;;;;;13.30;6.93;;;24.40;54.80;;;;;;5452860;26;20261;-71
2024/04/16 00:11:25;;;;;;;10.40;7.40;;;24.40;54.80;;;;;;5452683;26;20285;-71
2024/04/16 00:13:50;;;;;;;11.30;7.03;;;24.40;54.80;;;;;;5452778;26;20224;-71
2024/04/16 00:16:16;;;;;;;8.20;6.23;;;24.30;54.70;;;;;;5452889;26;20223;-70
2024/04/16 00:18:41;;;;;;;9.20;6.00;;;24.40;54.80;;;;;;5452817;26;20224;-72
2024/04/16 00:21:07;;;;;;;11.30;7.20;;;24.30;54.70;;;;;;5452691;26;20232;-71
2024/04/16 00:23:32;;;;;;;11.10;6.83;;;24.30;54.70;;;;;;5452803;26;20270;-71
2024/04/16 00:25:58;;;;;;;9.37;6.60;;;24.30;54.70;;;;;;5452697;26;20327;-71
2024/04/16 00:28:23;;;;;;;11.00;7.00;;;24.30;54.70;;;;;;5452382;26;20274;-72
2024/04/16 00:30:49;;;;;;;9.07;6.63;;;24.30;54.70;;;;;;5452504;26;20227;-71
2024/04/16 00:33:15;;;;;;;9.47;6.53;;;24.30;54.70;;;;;;5452528;26;20231;-72
2024/04/16 00:35:43;;;;;;;10.03;6.87;;;24.30;54.80;;;;;;5452572;26;20270;-71
2024/04/16 00:38:09;;;;;;;10.40;6.70;;;24.30;54.80;;;;;;5452547;26;20440;-72
2024/04/16 00:40:34;;;;;;;8.87;5.83;;;24.30;54.80;;;;;;5450491;26;20440;-71
2024/04/16 00:43:00;;;;;;;8.40;6.30;;;24.30;54.70;;;;;;5452371;26;20444;-71
2024/04/16 00:45:27;;;;;;;9.50;6.83;;;24.30;54.70;;;;;;5452417;26;20215;-70
2024/04/16 00:47:53;;;;;;;9.33;5.90;;;24.30;54.70;;;;;;5452300;26;20718;-71
2024/04/16 00:50:19;;;;;;;9.63;7.03;;;24.30;54.80;;;;;;5452196;26;20493;-71
2024/04/16 00:52:45;;;;;;;7.47;5.53;;;24.30;54.80;;;;;;5452225;26;20572;-69
2024/04/16 00:55:12;;;;;;;9.87;6.50;;;24.30;54.80;;;;;;5451877;26;20449;-71
2024/04/16 00:57:38;;;;;;;9.67;6.50;;;24.30;54.70;;;;;;5452383;26;20226;-72
2024/04/16 01:00:04;;;;;;;8.50;6.00;;;24.30;54.70;;;;;;5452248;26;20437;-71
2024/04/16 01:02:30;;;;;;;9.73;6.77;;;24.30;54.70;;;;;;5452127;26;20516;-71
2024/04/16 01:04:55;;;;;;;10.30;7.03;;;24.30;54.70;;;;;;5452153;26;20445;-71
2024/04/16 01:07:23;;;;;;;9.70;5.90;;;24.30;54.70;;;;;;5450455;26;20227;-70
2024/04/16 01:09:49;;;;;;;10.80;5.60;;;24.30;54.70;;;;;;5452022;26;20274;-70
2024/04/16 01:12:14;;;;;;;8.90;6.37;;;24.30;54.70;;;;;;5451930;26;20472;-70
2024/04/16 01:14:40;;;;;;;10.73;6.40;;;24.30;54.70;;;;;;5451935;26;20276;-71
2024/04/16 01:17:07;;;;;;;7.50;5.50;;;24.30;54.70;;;;;;5452176;26;20227;-70
2024/04/16 01:19:32;;;;;;;11.27;6.57;;;24.30;54.70;;;;;;5452068;26;20215;-71
2024/04/16 01:21:58;;;;;;;8.90;6.07;;;24.30;54.70;;;;;;5451698;26;20867;-71
2024/04/16 01:24:23;;;;;;;6.90;5.90;;;24.30;54.70;;;;;;5451616;26;20331;-71
2024/04/16 01:26:50;;;;;;;8.53;6.73;;;24.30;54.70;;;;;;5451799;26;20266;-71
2024/04/16 01:29:15;;;;;;;9.63;5.93;;;24.30;54.70;;;;;;5451682;26;20231;-72
2024/04/16 01:31:41;;;;;;;8.30;5.87;;;24.30;54.70;;;;;;5451477;26;21055;-71
2024/04/16 01:34:06;;;;;;;7.80;5.83;;;24.30;54.70;;;;;;5451587;26;20706;-72
2024/04/16 01:36:32;;;;;;;7.23;5.10;;;24.30;54.70;;;;;;5451615;26;20265;-71
2024/04/16 01:38:58;;;;;;;7.97;5.60;;;24.30;54.70;;;;;;5451618;26;20296;-71
2024/04/16 01:41:24;;;;;;;8.30;5.90;;;24.30;54.70;;;;;;5451613;26;20295;-71
2024/04/16 01:43:49;;;;;;;7.73;5.50;;;24.30;54.70;;;;;;5451872;26;20460;-71
2024/04/16 01:46:15;;;;;;;7.37;6.17;;;24.30;55.30;;;;;;5451655;26;20577;-71
2024/04/16 01:48:41;;;;;;;7.43;5.00;;;24.30;54.70;;;;;;5451604;26;20270;-72
2024/04/16 01:51:06;;;;;;;8.67;5.30;;;24.30;54.70;;;;;;5451574;26;20299;-72
2024/04/16 01:53:32;;;;;;;6.70;5.37;;;24.20;54.60;;;;;;5449726;26;20257;-72
2024/04/16 01:56:00;;;;;;;8.57;5.20;;;24.30;54.70;;;;;;5451337;26;20315;-71
2024/04/16 01:58:26;;;;;;;8.10;5.70;;;24.30;54.70;;;;;;5451366;26;20216;-70
2024/04/16 02:00:59;;;;;;;6.97;5.03;;;24.30;55.30;;;;;;5451263;26;20512;-71
2024/04/16 02:03:24;;;;;;;8.10;5.20;;;24.20;54.70;;;;;;5451294;26;20328;-71
2024/04/16 02:05:50;;;;;;;8.13;5.17;;;24.20;54.60;;;;;;5451540;26;20959;-72
2024/04/16 02:08:15;;;;;;;6.60;5.30;;;24.20;54.60;;;;;;5449917;26;20296;-72
2024/04/16 02:10:54;;;;;;;8.20;5.00;;;24.30;54.70;;;;;;5451118;26;20215;-71
2024/04/16 02:13:19;;;;;;;7.10;5.17;;;24.30;54.70;;;;;;5451197;26;20258;-72
2024/04/16 02:15:45;;;;;;;7.93;6.13;;;24.20;54.70;;;;;;5449206;26;21003;-71
2024/04/16 02:18:10;;;;;;;6.80;4.90;;;24.20;54.60;;;;;;5451041;26;20686;-71
2024/04/16 02:20:36;;;;;;;9.60;5.57;;;24.20;54.60;;;;;;5450869;26;20270;-70
2024/04/16 02:23:02;;;;;;;8.03;5.87;;;24.20;55.30;;;;;;5449321;26;20278;-71
2024/04/16 02:25:27;;;;;;;7.63;5.37;;;24.20;54.70;;;;;;5450954;26;20227;-71
2024/04/16 02:27:53;;;;;;;7.00;5.33;;;24.20;54.70;;;;;;5451147;26;20231;-70
2024/04/16 02:30:19;;;;;;;7.53;5.67;;;24.20;54.70;;;;;;5451193;26;20221;-72
2024/04/16 02:32:44;;;;;;;7.90;5.27;;;24.20;54.70;;;;;;5450991;26;20238;-72
2024/04/16 02:35:10;;;;;;;8.03;5.00;;;24.20;54.70;;;;;;5451121;26;20223;-72
2024/04/16 02:37:35;;;;;;;7.20;5.20;;;24.20;54.70;;;;;;5451123;26;20692;-71
2024/04/16 02:40:01;;;;;;;8.80;5.27;;;24.20;54.70;;;;;;5451128;26;20609;-71
2024/04/16 02:42:26;;;;;;;8.03;5.13;;;24.20;54.70;;;;;;5450971;26;20347;-71
2024/04/16 02:44:52;;;;;;;6.10;4.73;;;24.20;54.70;;;;;;5451486;26;20219;-71
2024/04/16 02:47:18;;;;;;;7.90;4.97;;;24.20;54.70;;;;;;5451294;26;20219;-71
2024/04/16 02:49:43;;;;;;;9.50;5.33;;;24.20;54.70;;;;;;5450956;26;20211;-72
2024/04/16 02:52:09;;;;;;;8.93;6.63;;;24.20;54.70;;;;;;5450965;26;20298;-71
2024/04/16 02:54:34;;;;;;;7.10;4.93;;;24.20;54.70;;;;;;5450435;26;20323;-72
2024/04/16 02:57:00;;;;;;;8.53;5.30;;;24.20;54.70;;;;;;5450541;26;20769;-71
2024/04/16 02:59:25;;;;;;;7.07;5.30;;;24.20;54.70;;;;;;5449087;26;20219;-72
2024/04/16 03:01:52;;;;;;;5.70;5.10;;;24.20;54.70;;;;;;5450764;26;20280;-72
2024/04/16 03:04:18;;;;;;;7.93;5.60;;;24.20;54.70;;;;;;5450711;26;20223;-71
2024/04/16 03:06:43;;;;;;;7.80;5.27;;;24.20;54.70;;;;;;5450329;26;20576;-70
2024/04/16 03:09:09;;;;;;;8.33;4.97;;;24.20;54.70;;;;;;5450317;26;20265;-71
2024/04/16 03:11:34;;;;;;;7.83;5.83;;;24.20;54.70;;;;;;5450419;26;20232;-70
2024/04/16 03:14:01;;;;;;;6.10;5.10;;;24.10;54.60;;;;;;5450256;26;20219;-71
2024/04/16 03:16:26;;;;;;;7.03;5.10;;;24.20;54.70;;;;;;5450079;26;20223;-71
2024/04/16 03:18:53;;;;;;;6.93;4.70;;;24.20;54.80;;;;;;5449829;26;20566;-71
2024/04/16 03:21:19;;;;;;;7.47;4.97;;;24.20;54.80;;;;;;5450142;26;20239;-71
2024/04/16 03:23:44;;;;;;;7.30;5.20;;;24.20;54.80;;;;;;5450268;26;20508;-71
2024/04/16 03:26:10;;;;;;;6.10;4.83;;;24.20;54.80;;;;;;5450077;26;20227;-71
2024/04/16 03:28:35;;;;;;;8.33;5.43;;;24.10;54.70;;;;;;5449713;26;20286;-71
2024/04/16 03:31:01;;;;;;;8.10;5.07;;;24.10;54.70;;;;;;5449935;26;20313;-71
2024/04/16 03:33:27;;;;;;;7.47;4.97;;;24.10;54.70;;;;;;5449752;26;20216;-72
2024/04/16 03:35:54;;;;;;;6.20;4.90;;;24.10;54.70;;;;;;5449810;26;20328;-70
2024/04/16 03:38:20;;;;;;;7.00;4.70;;;24.20;54.80;;;;;;5450114;26;20274;-71
2024/04/16 03:40:57;;;;;;;8.63;4.90;;;24.10;54.70;;;;;;5449662;26;20464;-72
2024/04/16 03:43:22;;;;;;;7.40;4.90;;;24.20;54.80;;;;;;5449720;26;20648;-71
2024/04/16 03:45:52;;;;;;;6.20;4.97;;;24.20;54.80;;;;;;5447848;26;20461;-71
2024/04/16 03:48:17;;;;;;;7.00;4.87;;;24.10;54.70;;;;;;5449669;26;20274;-71
2024/04/16 03:50:43;;;;;;;7.43;4.77;;;24.10;54.70;;;;;;5449720;26;20928;-71
2024/04/16 03:53:09;;;;;;;7.07;4.57;;;24.10;54.70;;;;;;5449736;26;20223;-71
2024/04/16 03:55:36;;;;;;;6.60;4.43;;;24.20;54.80;;;;;;5449474;26;20223;-71
2024/04/16 03:58:02;;;;;;;7.03;5.50;;;24.10;54.70;;;;;;5449462;26;20269;-71
2024/04/16 04:03:16;;;;;;;6.47;4.37;;;24.10;54.70;;;;;;5449418;26;20394;-71
2024/04/16 04:05:43;;;;;;;8.53;4.90;;;24.10;54.70;;;;;;5449297;26;20520;-72
2024/04/16 04:08:09;;;;;;;5.80;4.47;;;24.10;54.70;;;;;;5449195;26;20596;-70
2024/04/16 04:10:35;;;;;;;8.13;5.57;;;24.10;54.70;;;;;;5449191;26;20453;-72
2024/04/16 04:13:00;;;;;;;6.13;4.20;;;24.10;54.70;;;;;;5449252;26;20223;-71
2024/04/16 04:15:26;;;;;;;4.50;4.10;;;24.10;54.70;;;;;;5449086;26;20765;-72
2024/04/16 04:17:52;;;;;;;5.43;4.07;;;24.10;54.70;;;;;;5448987;26;20228;-71
2024/04/16 04:20:17;;;;;;;5.80;4.90;;;24.10;54.70;;;;;;5448815;26;20716;-72
2024/04/16 04:22:43;;;;;;;6.70;4.80;;;24.10;54.60;;;;;;5448890;26;20509;-71
2024/04/16 04:25:09;;;;;;;7.67;5.13;;;24.10;54.60;;;;;;5448843;26;20232;-69
2024/04/16 04:27:34;;;;;;;4.70;3.90;;;24.10;54.70;;;;;;5448635;26;20335;-70
2024/04/16 04:30:00;;;;;;;6.00;3.90;;;24.10;54.70;;;;;;5449217;26;20227;-71
2024/04/16 04:32:26;;;;;;;6.70;4.57;;;24.10;54.70;;;;;;5452270;26;20258;-71
2024/04/16 04:34:52;;;;;;;5.33;4.60;;;24.10;54.70;;;;;;5452350;26;20220;-72
2024/04/16 04:37:18;;;;;;;5.60;4.20;;;24.10;54.70;;;;;;5452349;26;20224;-71
2024/04/16 04:39:44;;;;;;;7.03;4.90;;;24.10;55.00;;;;;;5452312;26;20527;-70
2024/04/16 04:42:09;;;;;;;5.00;4.07;;;24.10;54.70;;;;;;5452164;26;20235;-71
2024/04/16 04:44:35;;;;;;;4.97;3.70;;;24.10;54.70;;;;;;5452241;26;20615;-71
2024/04/16 04:47:01;;;;;;;5.00;3.80;;;24.10;54.60;;;;;;5452231;26;20320;-71
2024/04/16 04:49:27;;;;;;;4.90;3.80;;;24.10;54.50;;;;;;5450415;26;20265;-71
2024/04/16 04:51:52;;;;;;;4.70;3.90;;;24.10;54.40;;;;;;5451839;26;20468;-72
2024/04/16 04:54:18;;;;;;;5.37;4.37;;;24.10;54.90;;;;;;5452006;26;20223;-72
2024/04/16 04:56:44;;;;;;;5.03;3.93;;;24.10;54.40;;;;;;5452100;26;20637;-70
2024/04/16 04:59:10;;;;;;;5.60;4.33;;;24.10;54.50;;;;;;5451778;26;20220;-72
2024/04/16 05:01:35;;;;;;;6.60;4.57;;;24.10;54.50;;;;;;5451935;26;20513;-71
2024/04/16 05:04:01;;;;;;;5.40;4.60;;;24.10;54.60;;;;;;5452033;26;20283;-71
2024/04/16 05:06:26;;;;;;;5.33;4.23;;;24.10;54.60;;;;;;5451955;26;20371;-72
2024/04/16 05:08:52;;;;;;;4.60;3.80;;;24.10;54.60;;;;;;5451947;26;20262;-70
2024/04/16 05:11:18;;;;;;;6.40;4.90;;;24.10;54.60;;;;;;5451924;26;20239;-71
2024/04/16 05:13:43;;;;;;;4.10;3.13;;;24.10;54.70;;;;;;5450041;26;20261;-71
2024/04/16 05:16:09;;;;;;;6.10;4.27;;;24.10;54.60;;;;;;5451680;26;20791;-70
2024/04/16 05:18:34;;;;;;;6.77;4.07;;;24.10;54.60;;;;;;5451539;26;20326;-71
2024/04/16 05:21:00;;;;;;;6.87;3.60;;;24.10;54.60;;;;;;5450064;26;20235;-71
2024/04/16 05:23:29;;;;;;;4.30;3.50;;;24.10;54.60;;;;;;5451585;26;20232;-72
2024/04/16 05:25:56;;;;;;;5.90;3.70;;;24.10;54.60;;;;;;5451642;26;20573;-69
2024/04/16 05:28:22;;;;;;;6.23;4.40;;;24.10;54.70;;;;;;5451883;26;20453;-71
2024/04/16 05:30:48;;;;;;;4.83;4.00;;;24.10;54.70;;;;;;5451205;26;20532;-69
2024/04/16 05:33:13;;;;;;;7.67;4.67;;;24.10;54.70;;;;;;5451410;26;20812;-71
2024/04/16 05:35:39;;;;;;;6.13;3.70;;;24.10;54.70;;;;;;5451253;26;20219;-70
2024/04/16 05:38:04;;;;;;;4.90;3.90;;;24.10;54.70;;;;;;5451353;26;20270;-70
2024/04/16 05:40:30;;;;;;;7.07;4.40;;;24.10;54.70;;;;;;5451309;26;20219;-71
2024/04/16 05:42:56;;;;;;;6.20;4.13;;;24.10;54.70;;;;;;5449435;26;20328;-71
2024/04/16 05:45:21;;;;;;;4.67;3.40;;;24.10;54.70;;;;;;5451621;26;21074;-70
2024/04/16 05:47:47;;;;;;;4.57;3.60;;;24.10;54.60;;;;;;5451279;26;20319;-71
2024/04/16 05:50:12;;;;;;;6.20;3.50;;;24.10;54.70;;;;;;5451046;26;20295;-70
2024/04/16 05:52:38;;;;;;;5.60;4.10;;;24.10;54.70;;;;;;5451002;26;20722;-69
2024/04/16 05:55:05;;;;;;;6.00;4.27;;;24.10;54.70;;;;;;5450835;26;20753;-71
2024/04/16 05:57:31;;;;;;;4.33;3.13;;;24.10;54.70;;;;;;5451113;26;20219;-70
2024/04/16 05:59:57;;;;;;;7.17;4.50;;;24.10;54.70;;;;;;5450960;26;20494;-69
2024/04/16 06:02:22;;;;;;;7.07;4.40;;;24.10;54.70;;;;;;5450982;26;20477;-70
2024/04/16 06:04:48;;;;;;;6.97;4.20;;;24.10;54.70;;;;;;5449160;26;20357;-71
2024/04/16 06:07:13;;;;;;;7.20;4.17;;;24.20;54.80;;;;;;5450916;26;20269;-70
2024/04/16 06:09:39;;;;;;;4.70;3.93;;;24.10;54.70;;;;;;5450751;26;20227;-71
2024/04/16 06:12:05;;;;;;;5.03;3.67;;;24.10;54.70;;;;;;5450756;26;20818;-70
2024/04/16 06:14:31;;;;;;;7.30;4.93;;;24.20;54.80;;;;;;5448974;26;20283;-70
2024/04/16 06:16:57;;;;;;;7.43;4.40;;;24.10;54.70;;;;;;5450808;26;20559;-71
2024/04/16 06:19:22;;;;;;;7.10;5.40;;;24.20;54.80;;;;;;5450654;26;20952;-70
2024/04/16 06:21:48;;;;;;;5.77;3.93;;;24.20;54.80;;;;;;5479034;26;20592;-71
2024/04/16 06:24:13;;;;;;;4.80;3.60;;;24.10;54.70;;;;;;5450786;26;20250;-70
2024/04/16 06:26:39;;;;;;;4.73;3.67;;;24.20;54.80;;;;;;5450575;26;20263;-70
2024/04/16 06:29:05;;;;;;;6.20;4.03;;;24.20;54.80;;;;;;5450246;26;20239;-70
2024/04/16 06:31:31;;;;;;;6.77;3.50;;;24.10;54.70;;;;;;5450550;26;20729;-70
2024/04/16 06:33:56;;;;;;;4.50;3.40;;;24.20;54.80;;;;;;5450312;26;20445;-70
2024/04/16 06:36:22;;;;;;;5.30;3.90;;;24.20;54.80;;;;;;5450437;26;20219;-70
2024/04/16 06:38:47;;;;;;;6.60;3.90;;;24.20;54.80;;;;;;5418707;26;20270;-69
2024/04/16 06:41:13;;;;;;;4.70;3.90;;;24.20;54.80;;;;;;5448703;26;20275;-71
2024/04/16 06:43:39;;;;;;;7.23;3.77;;;24.20;54.80;;;;;;5450470;26;20215;-70
2024/04/16 06:46:05;;;;;;;5.27;3.73;;;24.20;54.80;;;;;;5450338;26;20286;-72
2024/04/16 06:48:31;;;;;;;5.27;3.70;;;24.20;54.80;;;;;;5450462;26;20227;-71
2024/04/16 06:50:57;;;;;;;5.40;3.43;;;24.20;54.80;;;;;;5450319;26;20227;-71
2024/04/16 06:53:22;;;;;;;8.33;3.30;;;24.20;54.80;;;;;;5450011;26;20513;-71
2024/04/16 06:56:02;;;;;;;7.07;3.80;;;24.20;54.80;;;;;;5449931;26;20449;-71
2024/04/16 06:58:27;;;;;;;6.43;3.80;;;24.20;54.80;;;;;;5449999;26;21088;-71
2024/04/16 07:00:54;;;;;;;4.47;3.57;;;24.20;54.80;;;;;;5449937;26;20477;-69
2024/04/16 07:03:21;;;;;;;4.80;3.60;;;24.20;54.80;;;;;;5450147;26;20286;-71
2024/04/16 07:05:46;;;;;;;8.83;4.00;;;24.20;54.80;;;;;;5450426;26;20565;-69
2024/04/16 07:08:12;;;;;;;4.53;3.27;;;24.20;54.80;;;;;;5450026;26;20464;-70
2024/04/16 07:10:38;;;;;;;5.80;3.57;;;24.20;54.80;;;;;;5450077;26;20215;-70
2024/04/16 07:13:03;;;;;;;6.40;3.60;;;24.30;54.80;;;;;;5448552;26;20724;-70
2024/04/16 07:15:29;;;;;;;5.87;3.90;;;24.30;54.80;;;;;;5450013;26;20269;-70
2024/04/16 07:17:56;;;;;;;5.00;3.50;;;24.20;54.80;;;;;;5449733;26;20239;-71
2024/04/16 07:20:22;;;;;;;5.80;3.37;;;24.30;54.80;;;;;;5449618;26;20449;-71
2024/04/16 07:22:48;;;;;;;7.20;4.07;;;24.30;54.80;;;;;;5447140;26;20449;-71
2024/04/16 07:25:13;;;;;;;8.60;3.73;;;24.30;54.80;;;;;;5449977;26;20489;-70
2024/04/16 07:27:39;;;;;;;4.50;3.37;;;24.30;54.80;;;;;;5449574;26;20745;-69
2024/04/16 07:30:05;;;;;;;4.43;3.10;;;24.30;54.80;;;;;;5449587;26;20258;-69
2024/04/16 07:32:31;;;;;;;3.87;3.20;;;24.30;54.80;;;;;;5449207;26;20722;-70
2024/04/16 07:34:57;;;;;;;4.00;3.10;;;24.30;54.80;;;;;;5449509;26;20536;-70
2024/04/16 07:37:22;;;;;;;6.63;3.70;;;24.30;54.80;;;;;;5449147;26;20253;-69
2024/04/16 07:39:48;;;;;;;4.87;3.70;;;24.30;54.80;;;;;;5449387;26;20219;-69
2024/04/16 07:42:14;;;;;;;3.80;2.90;;;24.30;54.80;;;;;;5449359;26;20258;-71
2024/04/16 07:44:41;;;;;;;4.00;3.20;;;24.30;54.80;;;;;;5449235;26;20702;-70
2024/04/16 07:47:07;;;;;;;4.23;3.13;;;24.30;54.80;;;;;;5449084;26;20445;-70
2024/04/16 07:49:33;;;;;;;5.20;2.97;;;24.30;54.80;;;;;;5448921;26;20441;-69
2024/04/16 07:51:58;;;;;;;5.37;2.97;;;24.30;54.80;;;;;;5447057;26;20235;-71
2024/04/16 07:54:24;;;;;;;6.40;3.70;;;24.30;54.80;;;;;;5449030;26;20235;-70
2024/04/16 07:56:52;;;;;;;4.97;3.30;;;24.30;54.70;;;;;;5448874;26;20223;-69
2024/04/16 07:59:19;;;;;;;4.10;2.97;;;24.30;54.80;;;;;;5448741;26;20235;-71
2024/04/16 08:01:45;;;;;;;4.60;3.00;;;24.30;54.80;;;;;;5448815;26;20472;-71
2024/04/16 08:04:11;;;;;;;4.30;2.50;;;24.30;54.70;;;;;;5448621;26;20513;-70
2024/04/16 08:06:36;;;;;;;4.13;3.10;;;24.30;54.80;;;;;;5451570;26;20259;-70
2024/04/16 08:09:02;;;;;;;5.07;2.97;;;24.30;54.80;;;;;;5452490;26;20227;-70
2024/04/16 08:11:27;;;;;;;5.23;2.93;;;24.30;54.80;;;;;;5452129;26;20235;-71
2024/04/16 08:13:53;;;;;;;5.43;3.43;;;24.30;54.80;;;;;;5452263;26;20307;-70
2024/04/16 08:16:20;;;;;;;3.77;2.90;;;24.30;54.70;;;;;;5452181;26;20682;-70
2024/04/16 08:18:46;;;;;;;3.80;2.70;;;24.30;54.80;;;;;;5452268;26;20543;-70
2024/04/16 08:21:12;;;;;;;3.93;3.03;;;24.30;54.80;;;;;;5452039;26;20806;-70
2024/04/16 08:23:38;;;;;;;4.33;2.90;;;24.30;54.80;;;;;;5452223;26;20687;-70
2024/04/16 08:26:05;;;;;;;3.93;2.80;;;24.30;54.80;;;;;;5452524;26;20235;-71
2024/04/16 08:28:32;;;;;;;3.13;2.50;;;24.30;54.80;;;;;;5451948;26;20922;-70
2024/04/16 08:30:58;;;;;;;4.70;2.40;;;24.30;54.80;;;;;;5450050;26;21076;-70
2024/04/16 08:33:24;;;;;;;5.20;3.17;;;24.30;54.80;;;;;;5451995;26;20524;-70
2024/04/16 08:35:51;;;;;;;4.93;3.10;;;24.30;54.80;;;;;;5452326;26;20453;-71
2024/04/16 08:38:19;;;;;;;6.17;3.47;;;24.30;54.80;;;;;;5454481;26;20433;-70
2024/04/16 08:40:45;;;;;;;4.63;2.80;;;24.30;54.80;;;;;;5438681;26;20476;-70
2024/04/16 08:43:11;;;;;;;4.63;3.70;;;24.30;54.80;;;;;;5451881;26;20515;-70
2024/04/16 08:45:37;;;;;;;4.77;3.10;;;24.30;54.80;;;;;;5451791;26;20465;-71
2024/04/16 08:48:04;;;;;;;3.93;3.10;;;24.30;54.80;;;;;;5444279;26;20453;-71
2024/04/16 08:50:30;;;;;;;4.00;2.83;;;24.30;54.80;;;;;;5451825;26;20516;-72
2024/04/16 08:52:58;;;;;;;3.60;2.30;;;24.30;54.80;;;;;;5450038;26;21061;-71
2024/04/16 08:55:29;;;;;;;5.00;2.80;;;24.30;54.80;;;;;;5422677;26;20532;-72
2024/04/16 08:57:54;;;;;;;5.50;3.10;;;24.30;54.80;;;;;;5451845;26;20445;-71
2024/04/16 09:00:21;;;;;;;3.63;2.90;;;24.30;54.80;;;;;;5451639;26;20539;-71
2024/04/16 09:02:50;;;;;;;4.10;3.00;;;24.30;54.80;;;;;;5451618;26;20285;-71
2024/04/16 09:05:16;;;;;;;5.40;2.93;;;24.30;54.80;;;;;;5451629;26;20457;-71
2024/04/16 09:07:42;;;;;;;3.30;2.63;;;24.30;54.80;;;;;;5471596;26;20512;-71
2024/04/16 09:10:18;;;;;;;3.60;2.80;;;24.30;54.80;;;;;;5487950;26;20982;-70
2024/04/16 09:12:43;;;;;;;3.40;3.10;;;24.30;54.80;;;;;;5487737;26;20253;-71
2024/04/16 09:15:11;;;;;;;5.90;3.47;;;24.30;54.80;;;;;;5487678;26;20985;-71
2024/04/16 09:17:54;;;;;;;4.10;2.90;;;24.30;54.80;;;;;;5516049;26;20705;-70
2024/04/16 09:20:23;;;;;;;4.40;3.27;;;24.30;54.80;;;;;;5487701;26;20447;-72
2024/04/16 09:22:49;;;;;;;5.73;4.00;;;24.30;54.70;;;;;;5487530;26;20848;-72
2024/04/16 09:25:16;;;;;;;6.67;2.90;;;24.30;54.30;;;;;;5469278;26;20465;-69
2024/04/16 09:27:46;;;;;;;4.30;3.23;;;24.30;53.70;;;;;;5450995;26;20529;-71
2024/04/16 09:30:12;;;;;;;7.10;3.27;;;24.30;53.20;;;;;;5451275;26;20785;-70
2024/04/16 09:32:38;;;;;;;4.03;2.70;;;24.20;52.80;;;;;;5449289;26;20465;-71
2024/04/16 09:35:05;;;;;;;4.20;2.43;;;24.20;52.50;;;;;;5451010;26;20456;-71
2024/04/16 09:37:31;;;;;;;7.27;3.17;;;24.20;52.20;;;;;;5451254;26;20534;-71
2024/04/16 09:39:59;;;;;;;8.40;4.77;;;24.20;52.00;;;;;;5450966;26;20444;-71
2024/04/16 09:42:26;;;;;;;8.00;4.90;;;24.20;51.80;;;;;;5450683;26;20525;-70
2024/04/16 09:44:52;;;;;;;13.30;7.30;;;24.20;51.50;;;;;;5450934;26;20519;-71
2024/04/16 09:47:18;;;;;;;14.17;6.60;;;24.20;51.30;;;;;;5450668;26;20461;-71
2024/04/16 09:49:44;;;;;;;13.83;7.43;;;24.20;51.20;;;;;;5450829;26;20796;-71
2024/04/16 09:52:14;;;;;;;9.27;5.73;;;24.10;51.00;;;;;;5450773;26;21075;-71
2024/04/16 09:54:43;;;;;;;39.87;16.13;;;24.10;50.80;;;;;;5451232;26;20514;-72
2024/04/16 09:57:10;;;;;;;117.03;42.10;;;24.10;50.70;;;;;;5451006;26;20813;-71
2024/04/16 09:59:38;;;;;;;178.17;53.60;;;24.10;50.70;;;;;;5451018;26;20457;-69
2024/04/16 10:02:04;;;;;;;190.40;56.63;;;24.10;50.70;;;;;;5450906;26;20465;-71
2024/04/16 10:04:32;;;;;;;140.30;46.70;;;24.00;50.50;;;;;;5451014;26;20501;-72
2024/04/16 10:06:57;;;;;;;119.37;40.30;;;24.10;50.50;;;;;;5430007;26;20446;-72
2024/04/16 10:09:24;;;;;;;98.23;31.10;;;24.00;50.20;;;;;;5413309;26;20494;-70
2024/04/16 10:11:50;;;;;;;76.70;26.00;;;24.00;50.10;;;;;;5414709;26;20310;-70
2024/04/16 10:14:18;;;;;;;63.20;23.80;;;24.00;49.90;;;;;;5415066;26;20510;-72
2024/04/16 10:16:45;;;;;;;59.63;23.27;;;24.00;50.00;;;;;;5414953;26;20599;-72
2024/04/16 10:19:15;;;;;;;67.33;21.07;;;24.00;50.20;;;;;;5414944;26;20536;-72
2024/04/16 10:21:41;;;;;;;51.77;21.33;;;24.00;50.30;;;;;;5412750;26;20477;-70
2024/04/16 10:24:09;;;;;;;71.23;22.10;;;24.00;50.30;;;;;;5414572;26;20980;-71
2024/04/16 10:26:39;;;;;;;60.93;22.30;;;24.00;50.40;;;;;;5414682;26;20917;-71
2024/04/16 10:29:15;;;;;;;51.53;18.33;;;24.00;50.50;;;;;;5411403;26;20474;-71
2024/04/16 10:31:43;;;;;;;47.60;19.13;;;24.00;50.50;;;;;;5414413;26;20570;-71
2024/04/16 10:34:21;;;;;;;53.60;18.87;;;24.00;50.40;;;;;;5414230;26;20462;-72
2024/04/16 10:36:47;;;;;;;43.10;15.40;;;24.00;50.70;;;;;;5412572;26;20454;-70
2024/04/16 10:39:14;;;;;;;51.20;17.03;;;23.90;50.60;;;;;;5447972;26;20539;-70
2024/04/16 10:41:53;;;;;;;43.57;17.03;;;23.90;50.60;;;;;;5450136;26;20966;-72
2024/04/16 10:44:20;;;;;;;47.03;16.63;;;24.00;50.70;;;;;;5450431;26;20629;-72
2024/04/16 10:46:47;;;;;;;61.67;18.90;;;23.90;50.70;;;;;;5450220;26;20517;-71
2024/04/16 10:49:13;;;;;;;44.50;16.90;;;23.90;50.70;;;;;;5450569;26;21007;-71
2024/04/16 10:51:39;;;;;;;45.77;16.67;;;23.90;50.70;;;;;;5450267;26;20521;-72
2024/04/16 10:54:07;;;;;;;36.13;15.83;;;23.90;50.80;;;;;;5450186;26;20440;-72
2024/04/16 10:56:37;;;;;;;41.17;15.97;;;23.90;50.80;;;;;;5450333;26;20224;-71
2024/04/16 10:59:12;;;;;;;37.50;13.57;;;23.90;50.80;;;;;;5450102;26;20722;-71
2024/04/16 11:01:42;;;;;;;34.23;15.60;;;23.90;50.80;;;;;;5449955;26;20464;-71
2024/04/16 11:04:12;;;;;;;42.10;15.40;;;23.90;50.90;;;;;;5449987;26;20496;-72
2024/04/16 11:06:39;;;;;;;41.57;15.30;;;23.90;51.00;;;;;;5449998;26;20453;-71
2024/04/16 11:09:04;;;;;;;41.40;15.13;;;23.90;51.30;;;;;;5449908;26;20864;-72
2024/04/16 11:11:34;;;;;;;34.80;14.30;;;23.90;51.40;;;;;;5449589;26;20532;-72
2024/04/16 11:14:02;;;;;;;30.87;11.87;;;23.90;51.40;;;;;;5449762;26;20219;-71
2024/04/16 11:16:28;;;;;;;31.60;12.30;;;23.90;51.40;;;;;;5449628;26;20457;-71
2024/04/16 11:18:55;;;;;;;30.80;12.47;;;24.00;51.50;;;;;;5449664;26;20504;-71
2024/04/16 11:21:21;;;;;;;29.30;12.47;;;23.90;51.50;;;;;;5449161;26;20722;-71
2024/04/16 11:23:48;;;;;;;29.03;12.57;;;23.90;51.50;;;;;;5449309;26;20460;-70
2024/04/16 11:26:14;;;;;;;34.90;12.93;;;24.00;51.70;;;;;;5449487;26;20457;-71
2024/04/16 11:28:40;;;;;;;33.50;15.40;;;23.90;51.60;;;;;;5449259;26;20517;-71
2024/04/16 11:31:06;;;;;;;33.57;13.13;;;24.00;51.70;;;;;;5448955;26;20550;-72
2024/04/16 11:33:34;;;;;;;31.20;13.90;;;24.00;51.70;;;;;;5449328;26;20441;-70
2024/04/16 11:36:08;;;;;;;40.63;14.30;;;24.00;51.80;;;;;;5449028;26;20453;-70
2024/04/16 11:38:34;;;;;;;35.57;15.13;;;24.00;51.80;;;;;;5448976;26;20503;-71
2024/04/16 11:41:00;;;;;;;32.53;15.97;;;24.00;51.80;;;;;;5452442;26;20468;-71
2024/04/16 11:43:32;;;;;;;41.43;17.27;;;24.00;51.90;;;;;;5452940;26;20215;-71
2024/04/16 11:45:59;;;;;;;68.27;26.10;;;24.00;51.80;;;;;;5452754;26;20440;-69
2024/04/16 11:48:24;;;;;;;83.87;33.40;;;24.00;51.80;;;;;;5452679;26;20562;-72
2024/04/16 11:50:51;;;;;;;95.93;36.30;;;24.00;51.80;;;;;;5450559;26;20476;-71
2024/04/16 11:53:16;;;;;;;107.13;38.03;;;24.00;51.80;;;;;;5450593;26;20261;-72
2024/04/16 11:55:43;;;;;;;103.50;40.13;;;24.00;51.90;;;;;;5452439;26;20967;-71
2024/04/16 11:58:09;;;;;;;86.73;38.77;;;24.00;52.00;;;;;;5452389;26;20262;-72
2024/04/16 12:00:35;;;;;;;88.70;38.90;;;24.00;52.00;;;;;;5452434;26;20452;-71
2024/04/16 12:03:01;;;;;;;91.07;36.83;;;24.00;52.00;;;;;;5452246;26;20301;-72
2024/04/16 12:05:27;;;;;;;97.47;39.50;;;24.00;52.10;;;;;;5452191;26;20231;-71
2024/04/16 12:07:53;;;;;;;99.60;41.47;;;24.00;52.10;;;;;;5452125;26;20495;-71
2024/04/16 12:10:19;;;;;;;97.73;40.83;;;24.00;52.10;;;;;;5451924;26;20224;-71
2024/04/16 12:12:45;;;;;;;111.13;40.97;;;24.00;52.00;;;;;;5452449;26;20571;-71
2024/04/16 12:15:10;;;;;;;95.17;38.87;;;24.00;52.10;;;;;;5452117;26;20448;-71
2024/04/16 12:17:36;;;;;;;87.20;38.20;;;24.00;52.00;;;;;;5452182;26;20809;-71
2024/04/16 12:20:02;;;;;;;94.10;40.53;;;24.00;52.10;;;;;;5452011;26;21048;-72
2024/04/16 12:22:28;;;;;;;85.73;37.17;;;24.00;52.10;;;;;;5451933;26;20352;-72
2024/04/16 12:24:54;;;;;;;80.53;35.13;;;24.00;52.10;;;;;;5451933;26;20460;-72
2024/04/16 12:27:20;;;;;;;75.20;35.27;;;24.00;52.10;;;;;;5451770;26;20504;-72
2024/04/16 12:29:47;;;;;;;91.80;37.70;;;24.00;52.10;;;;;;5451810;26;20319;-72
2024/04/16 12:32:12;;;;;;;89.17;33.30;;;24.00;52.10;;;;;;5451628;26;20464;-71
2024/04/16 12:34:38;;;;;;;95.17;38.40;;;24.00;52.10;;;;;;5451709;26;20577;-70
2024/04/16 12:37:03;;;;;;;76.67;34.40;;;24.00;52.20;;;;;;5449806;26;20223;-71
2024/04/16 12:39:29;;;;;;;68.80;33.27;;;24.00;52.20;;;;;;5451703;26;20235;-71